Warning: Javascript must be enabled to use all the features on this page!


Page Loading - Please Wait...

* We've detected you're using a mobile device. Find our Next Generation Station Page here.
Click to hideNews Bulletins

Peak Streamflow for the Nation

USGS 04232200 CATHARINE CR AT MONTOUR FALLS NY

Schuyler County, New York
Hydrologic Unit Code 04140201
Latitude  42°19'41.8", Longitude  76°50'38.1" NAD83
Drainage area 41.1  square miles
Gage datum 473.40 feet above NAVD88
Output formats
Table
Graph
Tab-separated file
peakfq (watstore) format
Reselect output format
Water
Year
Date Gage
Height
(feet)
Stream-
flow
(cfs)
1972 1972-06-22   3,3002,7,9
1975 1975-09-26 6.40 1,680
1976 1976-06-20   7801
1977 1976-10-21   772
1987 1987-04-04 5.12 515
1988 1988-03-26 4.954 4254
1989 1989-05-11 4.95 426
1990 1990-02-17 5.54 778
1991 1990-10-24 5.93 1,090
1992 1992-03-27 5.93 840
1993 1993-04-17 5.73 780
1994 1994-09-27 6.48 1,260
1995 1995-01-21 5.40 585
1996 1996-01-19 7.66 3,0002
1997 1996-11-08 8.48 4,7002
1998 1998-01-08 6.01 1,140
1999 1999-03-04 6.33 1,400
2000 2000-04-04 5.24 735
2001 2001-03-30 5.23 728
2002 2002-06-27 5.64 977
2003 2003-03-17 5.38 811
2004 2004-09-18 6.18 1,270
2005 2005-04-03 6.54 1,590
2006 2005-11-30 6.63 1,680
2007 2007-03-15 6.25 1,330
2008 2007-12-23 6.01 1,140
2009 2009-03-09 4.98 456
2010 2010-01-25 5.76 948
2011 2011-09-08 5.11 5289
2012 2012-01-27 5.124 4002
2013 2013-08-09 7.30 3,3402,R
2014 2014-06-09 5.42 1,420R
2015 2015-07-15   1802
2016 2016-02-24 5.01 1,110R
2017 2017-04-21 4.86 993R
2018 2018-08-14 7.87 4,080R
2019 2019-04-19 4.29 619R
2020 2020-04-30 6.54 2,470
?
  Peak Gage-Height Qualification Codes.
?
  Peak Streamflow Qualification Codes.